Station: Parafield

  Atmospheric Gas Attenuation - ITU Rec 676-11   --------------- db/100km ---------------
Date Time Temp RH % AH g/m3 Dew Point Wind Direction Speed kph Gust kph Barometer mB Rainfall Since 9am 24GHz 47GHz 76GHz 122GHz 134GHz 241GHz
24 18:50 37.3 10 4.45 0.6 26 33 1000.7 0 10.1 15.1 18.3 47.4 35.7 120.7
24 18:40 38.8 10 4.81 1.7 35 44 1000.4 0 10.8 15.3 18.8 48.9 38.0 129.1
24 18:30 38.5 11 5.21 2.8 28 37 1000.3 0 11.6 15.7 19.9 51.8 41.5 141.3
24 18:20 40.1 10 5.13 2.7 28 33 1000.2 0 11.4 15.4 19.4 50.3 40.1 136.4
24 18:10 41.6 8 4.43 0.7 17 20 999.9 0 10.0 14.4 17.3 45.0 33.8 114.4
24 18:00 42 8 4.51 1 20 28 999.9 0 10.1 14.5 17.4 45.3 34.3 116.1
24 17:50 41.2 8 4.34 0.4 22 24 1000 0 9.8 14.4 17.2 44.6 33.2 112.4
24 17:40 41.4 7 3.83 -1.3 22 28 1000.1 0 8.8 13.9 16.0 41.3 29.2 98.2
24 17:30 41.8 8 4.47 0.8 26 35 1000.1 0 10.0 14.5 17.4 45.1 34.0 115.3
24 17:20 41.5 8 4.4 0.6 28 32 1000.2 0 9.9 14.4 17.3 44.8 33.6 113.7
24 17:10 42.4 8 4.6 1.3 22 28 1000.3 0 10.3 14.5 17.6 45.6 34.8 118.1
24 17:00 41.8 8 4.47 0.8 24 32 1000.4 0 10.0 14.5 17.4 45.1 34.0 115.3
24 16:50 41.3 9 4.91 2.1 24 28 1000.5 0 10.9 15.0 18.6 48.2 37.7 128.4
24 16:40 41.4 8 4.38 0.5 26 35 1000.7 0 9.9 14.4 17.3 44.8 33.5 113.4
24 16:30 41.2 9 4.88 2 28 35 1000.8 0 10.9 15.0 18.5 48.1 37.6 127.7
24 16:20 41.3 9 4.91 2.1 28 35 1001 0 10.9 15.0 18.6 48.3 37.8 128.4
24 16:10 41 10 5.37 3.4 28 35 1001 0 11.9 15.5 19.8 51.5 41.6 142.1
24 16:00 41.3 10 5.45 3.6 32 43 1001.2 0 12.0 15.5 19.9 51.8 42.2 143.9
24 15:50 40.6 10 5.26 3.1 35 44 1001.3 0 11.7 15.5 19.6 51.0 40.9 139.5
24 15:40 41.1 10 5.4 3.4 30 35 1001.3 0 11.9 15.5 19.8 51.6 41.8 142.8
24 15:30 41 9 4.83 1.9 30 41 1001.5 0 10.8 15.0 18.5 47.9 37.3 126.6
24 15:20 41.3 8 4.36 0.5 30 37 1001.6 0 9.8 14.5 17.3 44.7 33.4 113.0
24 15:10 41.3 8 4.36 0.5 26 30 1001.7 0 9.8 14.5 17.3 44.8 33.4 113.0
24 15:00 41.2 8 4.34 0.4 30 41 1001.9 0 9.8 14.5 17.2 44.7 33.3 112.6
24 14:50 42.7 8 4.67 1.5 26 32 1002 0 10.4 14.6 17.7 46.0 35.3 119.9
24 14:40 41.4 9 4.93 2.2 39 43 1002.1 0 11.0 15.0 18.6 48.4 37.9 129.0
24 14:30 40.9 9 4.81 1.8 32 43 1002.2 0 10.8 15.0 18.4 47.9 37.2 126.3
24 14:20 41.8 9 5.03 2.5 28 32 1002.3 0 11.2 15.1 18.8 48.8 38.6 131.3
24 14:10 41.4 10 5.48 3.7 28 32 1002.4 0 12.1 15.6 20.0 52.0 42.4 144.8
24 14:00 40.9 10 5.34 3.3 32 41 1002.5 0 11.8 15.5 19.8 51.4 41.5 141.5
24 13:50 41.1 10 5.4 3.4 32 35 1002.7 0 11.9 15.6 19.9 51.7 41.9 143.0
24 13:40 40.2 11 5.68 4.1 30 35 1002.9 0 12.5 16.0 20.8 54.1 44.7 152.7
24 13:30 40.1 11 5.65 4 30 43 1003 0 12.5 16.0 20.7 54.0 44.5 152.0
24 13:20 40.5 10 5.24 3 32 35 1003.2 0 11.6 15.5 19.6 51.0 40.9 139.4
24 13:10 40.7 9 4.76 1.7 32 39 1003.3 0 10.7 15.0 18.4 47.7 36.9 125.3
24 13:00 41 9 4.83 1.9 30 43 1003.5 0 10.8 15.0 18.5 48.0 37.3 126.9
24 12:50 42.1 8 4.54 1.1 28 35 1003.5 0 10.2 14.6 17.6 45.6 34.6 117.2
24 12:40 41.1 8 4.32 0.3 30 33 1003.6 0 9.8 14.5 17.3 44.7 33.2 112.4
24 12:30 41.6 7 3.87 -1.1 33 44 1003.6 0 8.8 14.0 16.1 41.6 29.5 99.4
24 12:20 42.5 6 3.47 -2.6 33 35 1003.7 0 8.0 13.5 15.0 38.7 26.2 87.7
24 12:10 42.6 6 3.49 -2.5 30 35 1003.9 0 8.1 13.5 15.1 38.8 26.3 88.1
24 12:00 42.5 8 4.63 1.3 26 37 1003.9 0 10.3 14.6 17.7 46.0 35.1 119.2
24 11:50 42.5 6 3.47 -2.6 26 32 1004 0 8.0 13.5 15.0 38.8 26.2 87.7
24 11:40 42.4 5 2.88 -5.1 24 26 1004 0 6.8 13.0 13.7 35.2 21.9 72.2
24 11:30 41.8 5 2.79 -5.5 24 32 1004.2 0 6.7 13.0 13.6 35.0 21.3 70.4
24 11:20 40.9 6 3.21 -3.7 22 24 1004.3 0 7.5 13.5 14.7 37.9 24.7 82.3
24 11:10 39.8 6 3.03 -4.5 22 24 1004.4 0 7.2 13.5 14.5 37.2 23.6 78.4
24 11:00 39.4 6 2.97 -4.8 24 32 1004.5 0 7.1 13.4 14.4 37.0 23.3 77.1
24 10:50 39.3 6 2.96 -4.8 24 30 1004.6 0 7.1 13.5 14.4 37.0 23.3 76.9
24 10:40 39.2 6 2.94 -4.9 19 20 1004.7 0 7.0 13.5 14.4 36.9 23.1 76.5
24 10:30 38.5 6 2.84 -5.4 22 32 1004.8 0 6.8 13.5 14.3 36.6 22.5 74.4
24 10:20 38.2 7 3.26 -3.6 22 26 1004.8 0 7.7 13.9 15.3 39.4 25.9 86.2
24 10:10 37.3 7 3.12 -4.2 24 28 1004.9 0 7.4 13.9 15.1 38.9 25.0 83.1
24 10:00 36.8 7 3.04 -4.6 28 37 1005 0 7.3 13.9 15.0 38.6 24.6 81.4
24 09:50 36.5 7 2.99 -4.8 28 30 1005.1 0 7.2 13.9 15.0 38.4 24.3 80.2
24 09:40 36.4 7 2.98 -4.9 24 26 1005.2 0 7.2 13.9 15.0 38.4 24.2 80.1
24 09:30 36.2 7 2.95 -5 30 39 1005.3 0 7.1 13.9 14.9 38.3 24.0 79.4
24 09:20 36.1 7 2.93 -5.1 30 33 1005.4 0 7.1 13.9 14.9 38.2 23.9 78.9
24 09:10 36.2 7 2.95 -5 28 32 1005.4 0 7.1 13.9 14.9 38.3 24.0 79.4
24 09:00 36.2 7 2.95 -5 32 46 1005.3 0 7.1 13.9 14.9 38.3 24.0 79.4
24 08:50 36.2 8 3.37 -3.3 30 33 1005.3 0 8.0 14.3 15.9 41.0 27.4 91.3
24 08:40 36.2 8 3.37 -3.3 28 33 1005.3 0 8.0 14.3 15.9 41.0 27.4 91.3
24 08:30 35.8 9 3.71 -2 30 41 1005.4 0 8.7 14.7 16.8 43.5 30.3 101.5
24 08:20 35.8 10 4.12 -0.5 28 33 1005.4 0 9.5 15.1 17.9 46.2 33.7 113.5
24 08:10 34.8 11 4.31 0 22 26 1005.4 0 9.9 15.5 18.6 48.0 35.7 120.5
24 08:00 34.1 12 4.53 0.7 26 35 1005.4 0 10.4 15.8 19.3 50.0 37.9 128.2
24 07:50 33.2 13 4.68 1.1 20 24 1005.2 0 10.7 16.1 19.9 51.5 39.6 134.1
24 07:40 32.9 13 4.61 0.9 32 37 1005.2 0 10.6 16.1 19.8 51.2 39.1 132.4
24 07:30 33.1 13 4.65 1 28 33 1005.1 0 10.6 16.1 19.8 51.4 39.4 133.3
24 07:20 32.6 13 4.53 0.6 26 30 1005 0 10.4 16.1 19.6 50.8 38.5 130.4
24 07:10 32.1 13 4.41 0.2 22 28 1005 0 10.2 16.0 19.4 50.2 37.7 127.4
24 07:00 32.1 13 4.41 0.2 20 30 1004.9 0 10.2 16.0 19.4 50.2 37.7 127.3
24 06:50 31.6 13 4.3 -0.1 19 22 1004.8 0 10.0 16.0 19.2 49.7 36.9 124.6
24 06:40 31.4 13 4.25 -0.3 19 26 1004.8 0 9.9 15.9 19.1 49.5 36.6 123.3
24 06:30 31.2 14 4.53 0.6 19 24 1004.8 0 10.4 16.3 19.9 51.6 39.2 132.4
24 06:20 30.9 14 4.46 0.3 19 20 1004.7 0 10.3 16.2 19.8 51.3 38.7 130.7
24 06:10 30.7 14 4.41 0.2 17 20 1004.7 0 10.2 16.2 19.7 51.0 38.3 129.4
24 06:00 31 14 4.48 0.4 19 26 1004.7 0 10.4 16.3 19.8 51.4 38.8 131.2
24 05:50 30.8 14 4.43 0.2 19 24 1004.7 0 10.3 16.2 19.7 51.1 38.4 129.9
24 05:40 30.8 15 4.75 1.2 19 20 1004.5 0 10.9 16.6 20.6 53.5 41.3 140.0
24 05:30 30.9 15 4.78 1.3 20 26 1004.5 0 11.0 16.6 20.7 53.6 41.5 140.8
24 05:20 30.9 15 4.78 1.3 22 26 1004.6 0 11.0 16.6 20.7 53.6 41.5 140.9
24 04:50 31.3 15 4.88 1.6 24 30 1004.6 0 11.2 16.6 20.8 54.1 42.3 143.4
24 04:40 31.2 15 4.85 1.5 22 26 1004.6 0 11.1 16.6 20.8 53.9 42.0 142.6
24 04:30 31.3 15 4.88 1.6 26 32 1004.5 0 11.2 16.6 20.8 54.1 42.3 143.4
24 04:20 31.6 15 4.96 1.8 28 32 1004.5 0 11.3 16.7 21.0 54.5 42.8 145.4
24 04:10 31.5 15 4.93 1.8 26 32 1004.5 0 11.3 16.7 20.9 54.3 42.6 144.7
24 04:00 31.6 15 4.96 1.8 28 39 1004.5 0 11.3 16.7 21.0 54.5 42.8 145.4
24 03:50 31.6 15 4.96 1.8 24 28 1004.6 0 11.3 16.7 21.0 54.5 42.8 145.5
24 03:40 31.7 15 4.99 1.9 24 35 1004.6 0 11.4 16.7 21.0 54.7 43.1 146.3
24 03:30 31.6 15 4.96 1.8 26 41 1004.6 0 11.3 16.7 21.0 54.5 42.8 145.5
24 03:20 31.7 16 5.32 2.8 28 32 1004.6 0 12.0 17.1 22.0 57.1 46.1 156.9
24 03:10 31.3 16 5.2 2.5 24 30 1004.7 0 11.8 17.0 21.7 56.5 45.2 153.7
24 03:00 31.7 16 5.32 2.8 28 35 1004.8 0 12.0 17.1 22.0 57.1 46.1 156.9
24 02:50 31.5 16 5.26 2.7 26 32 1004.8 0 11.9 17.0 21.8 56.8 45.6 155.3
24 02:40 31.6 16 5.29 2.7 22 30 1005 0 12.0 17.1 21.9 57.0 45.9 156.1
24 02:30 31.6 16 5.29 2.7 22 32 1005.1 0 12.0 17.1 21.9 57.0 45.9 156.2
24 02:20 31.5 16 5.26 2.7 20 24 1005.2 0 11.9 17.1 21.9 56.8 45.7 155.4
24 02:10 31.6 16 5.29 2.7 20 22 1005.3 0 12.0 17.1 21.9 57.0 45.9 156.2
24 02:00 31.5 16 5.26 2.7 26 32 1005.3 0 11.9 17.1 21.9 56.8 45.7 155.4

Last Refresh: 24-Jan-2021 19:01:32

Most of the information presented on this site is sourced from the Bureau of Meteorology.  Copyright in all material sourced from the Bureau of Meteorology resides with the Commonwealth of Australia.